createdAt,value
2023-02-19T00:01:32.936Z,10.54
2023-02-19T00:04:00.648Z,10.34
2023-02-19T00:06:28.990Z,10.60
2023-02-19T00:08:56.216Z,10.58
2023-02-19T00:11:27.419Z,10.75
2023-02-19T00:13:55.714Z,10.70
2023-02-19T00:16:27.421Z,10.63
2023-02-19T00:18:55.940Z,10.52
2023-02-19T00:21:23.064Z,10.64
2023-02-19T00:23:55.144Z,10.41
2023-02-19T00:26:22.032Z,10.23
2023-02-19T00:28:50.521Z,10.24
2023-02-19T00:31:23.106Z,10.20
2023-02-19T00:33:52.866Z,10.13
2023-02-19T00:36:21.907Z,10.10
2023-02-19T00:38:49.016Z,9.97
2023-02-19T00:41:20.500Z,9.78
2023-02-19T00:43:57.340Z,9.88
2023-02-19T00:46:38.522Z,10.00
2023-02-19T00:49:07.050Z,9.72
2023-02-19T00:51:38.195Z,9.76
2023-02-19T00:54:05.899Z,9.97
2023-02-19T00:56:33.318Z,9.90
2023-02-19T00:58:59.954Z,9.93
2023-02-19T01:01:26.600Z,9.92
2023-02-19T01:03:53.340Z,9.91
2023-02-19T01:06:21.630Z,9.87
2023-02-19T01:08:48.682Z,9.80
2023-02-19T01:11:16.487Z,9.72
2023-02-19T01:13:43.654Z,9.63
2023-02-19T01:16:19.711Z,9.68
2023-02-19T01:18:47.938Z,9.79
2023-02-19T01:21:17.832Z,9.72
2023-02-19T01:23:45.156Z,9.64
2023-02-19T01:26:15.568Z,9.74
2023-02-19T01:28:42.081Z,9.74
2023-02-19T01:31:13.088Z,9.64
2023-02-19T01:33:40.003Z,9.83
2023-02-19T01:36:07.695Z,9.98
2023-02-19T01:38:34.261Z,10.00
2023-02-19T01:41:07.523Z,10.03
2023-02-19T01:43:35.517Z,10.13
2023-02-19T01:46:02.179Z,10.11
2023-02-19T01:48:35.670Z,9.88
2023-02-19T01:51:12.947Z,9.64
2023-02-19T01:53:46.313Z,9.55
2023-02-19T01:56:16.546Z,9.56
2023-02-19T01:58:44.193Z,9.39
2023-02-19T02:01:11.398Z,9.60
2023-02-19T02:03:41.951Z,9.47
2023-02-19T02:06:15.900Z,9.49
2023-02-19T02:09:01.114Z,9.47
2023-02-19T02:11:29.326Z,9.34
2023-02-19T02:13:57.553Z,9.30
2023-02-19T02:16:34.420Z,9.44
2023-02-19T02:19:58.028Z,9.62
2023-02-19T02:22:34.042Z,9.57
2023-02-19T02:25:19.183Z,9.82
2023-02-19T02:28:00.777Z,9.87
2023-02-19T02:30:32.216Z,9.85
2023-02-19T02:33:36.406Z,9.96
2023-02-19T02:36:27.776Z,9.80
2023-02-19T02:38:56.881Z,9.92
2023-02-19T02:41:24.279Z,9.85
2023-02-19T02:43:50.850Z,9.87
2023-02-19T02:46:35.034Z,9.95
2023-02-19T02:49:22.830Z,9.81
2023-02-19T02:51:53.880Z,9.88
2023-02-19T02:54:47.188Z,9.85
2023-02-19T02:57:15.260Z,9.96
2023-02-19T02:59:43.142Z,10.12
2023-02-19T03:02:22.777Z,10.04
2023-02-19T03:05:17.362Z,9.99
2023-02-19T03:07:51.499Z,10.10
2023-02-19T03:10:25.210Z,10.17
2023-02-19T03:13:13.616Z,10.16
2023-02-19T03:16:06.083Z,10.01
2023-02-19T03:18:55.417Z,9.93
2023-02-19T03:21:23.896Z,9.96
2023-02-19T03:24:09.993Z,9.75
2023-02-19T03:26:39.018Z,9.72
2023-02-19T03:29:26.226Z,9.76
2023-02-19T03:31:58.770Z,9.61
2023-02-19T03:34:31.005Z,9.49
2023-02-19T03:37:13.107Z,9.32
2023-02-19T03:39:44.449Z,9.24
2023-02-19T03:42:17.279Z,8.90
2023-02-19T03:44:43.953Z,8.86
2023-02-19T03:47:24.407Z,8.80
2023-02-19T03:49:53.548Z,8.54
2023-02-19T03:52:32.165Z,8.69
2023-02-19T03:55:19.695Z,8.43
2023-02-19T03:57:55.874Z,8.28
2023-02-19T04:00:48.542Z,8.06
2023-02-19T04:03:24.620Z,7.91
2023-02-19T04:05:59.595Z,7.79
2023-02-19T04:08:26.944Z,7.86
2023-02-19T04:10:54.710Z,7.92
2023-02-19T04:13:32.826Z,7.90
2023-02-19T04:16:05.605Z,7.70
2023-02-19T04:18:36.284Z,7.62
2023-02-19T04:21:05.917Z,7.85
2023-02-19T04:23:38.294Z,7.85
2023-02-19T04:26:08.053Z,8.30
2023-02-19T04:28:35.425Z,8.34
2023-02-19T04:31:02.489Z,8.76
2023-02-19T04:33:29.109Z,8.81
2023-02-19T04:35:55.685Z,8.89
2023-02-19T04:38:22.288Z,9.05
2023-02-19T04:40:51.430Z,9.04
2023-02-19T04:43:18.635Z,8.80
2023-02-19T04:45:45.257Z,8.83
2023-02-19T04:48:12.006Z,9.04
2023-02-19T04:50:39.811Z,8.90
2023-02-19T04:53:07.465Z,8.78
2023-02-19T04:55:38.815Z,8.75
2023-02-19T04:58:05.487Z,8.52
2023-02-19T05:00:33.977Z,8.41
2023-02-19T05:03:01.604Z,8.25
2023-02-19T05:05:28.285Z,8.03
2023-02-19T05:07:54.924Z,7.96
2023-02-19T05:10:21.541Z,7.93
2023-02-19T05:12:48.177Z,8.24
2023-02-19T05:15:14.815Z,8.37
2023-02-19T05:17:41.356Z,8.40
2023-02-19T05:20:08.696Z,8.29
2023-02-19T05:22:35.278Z,8.38
2023-02-19T05:25:01.890Z,8.50
2023-02-19T05:27:30.715Z,8.52
2023-02-19T05:29:57.351Z,8.55
2023-02-19T05:32:23.897Z,8.70
2023-02-19T05:34:52.073Z,8.74
2023-02-19T05:37:18.669Z,8.79
2023-02-19T05:39:45.261Z,8.75
2023-02-19T05:42:14.346Z,8.78
2023-02-19T05:44:42.061Z,8.84
2023-02-19T05:47:08.682Z,8.72
2023-02-19T05:49:35.275Z,8.58
2023-02-19T05:52:01.904Z,8.41
2023-02-19T05:54:29.596Z,8.21
2023-02-19T05:56:56.370Z,8.12
2023-02-19T05:59:25.531Z,8.12
2023-02-19T06:01:53.976Z,8.00
2023-02-19T06:04:20.737Z,8.00
2023-02-19T06:06:48.463Z,7.93
2023-02-19T06:09:15.103Z,7.98
2023-02-19T06:11:43.435Z,7.99
2023-02-19T06:14:12.484Z,8.12
2023-02-19T06:16:39.035Z,8.16
2023-02-19T06:19:05.694Z,8.15
2023-02-19T06:21:32.483Z,8.14
2023-02-19T06:23:59.312Z,8.07
2023-02-19T06:26:25.934Z,7.99
2023-02-19T06:28:53.873Z,7.91
2023-02-19T06:31:22.253Z,7.87
2023-02-19T06:33:50.721Z,7.84
2023-02-19T06:36:20.154Z,7.86
2023-02-19T06:38:46.839Z,7.75
2023-02-19T06:41:14.041Z,7.66
2023-02-19T06:43:41.808Z,7.63
2023-02-19T06:46:10.533Z,7.63
2023-02-19T06:48:39.730Z,7.56
2023-02-19T06:51:06.541Z,7.53
2023-02-19T06:53:33.142Z,7.52
2023-02-19T06:56:00.915Z,7.58
2023-02-19T06:58:28.064Z,7.51
2023-02-19T07:00:54.796Z,7.50
2023-02-19T07:03:21.754Z,7.59
2023-02-19T07:05:51.287Z,7.59
2023-02-19T07:08:18.749Z,7.52
2023-02-19T07:10:45.853Z,7.63
2023-02-19T07:13:12.661Z,7.67
2023-02-19T07:15:39.352Z,7.67
2023-02-19T07:18:10.376Z,7.68
2023-02-19T07:20:37.331Z,7.70
2023-02-19T07:23:04.159Z,7.73
2023-02-19T07:25:30.742Z,7.80
2023-02-19T07:27:57.522Z,7.83
2023-02-19T07:30:24.183Z,7.77
2023-02-19T07:32:50.808Z,7.76
2023-02-19T07:35:17.348Z,7.92
2023-02-19T07:37:43.992Z,7.97
2023-02-19T07:40:10.972Z,7.96
2023-02-19T07:42:37.901Z,8.04
2023-02-19T07:45:04.838Z,8.01
2023-02-19T07:47:31.513Z,8.01
2023-02-19T07:49:58.102Z,8.23
2023-02-19T07:52:24.854Z,8.29
2023-02-19T07:54:51.556Z,8.36
2023-02-19T07:57:18.210Z,8.40
2023-02-19T07:59:44.797Z,8.37
2023-02-19T08:02:35.798Z,8.54
2023-02-19T08:05:03.718Z,8.38
2023-02-19T08:07:40.558Z,8.48
2023-02-19T08:10:29.231Z,8.72
2023-02-19T08:13:19.118Z,8.79
2023-02-19T08:15:47.111Z,8.74
2023-02-19T08:18:15.052Z,8.54
2023-02-19T08:20:42.211Z,8.28
2023-02-19T08:23:09.860Z,8.23
2023-02-19T08:25:37.115Z,8.11
2023-02-19T08:28:04.591Z,7.99
2023-02-19T08:30:33.427Z,7.94
2023-02-19T08:33:02.350Z,7.88
2023-02-19T08:35:29.366Z,7.82
2023-02-19T08:37:59.487Z,7.92
2023-02-19T08:40:26.707Z,7.95
2023-02-19T08:42:53.346Z,7.97
2023-02-19T08:45:20.317Z,8.01
2023-02-19T08:47:46.974Z,8.08
2023-02-19T08:50:13.588Z,8.16
2023-02-19T08:52:40.147Z,8.26
2023-02-19T08:55:07.338Z,8.24
2023-02-19T08:57:37.718Z,8.31
2023-02-19T09:00:06.563Z,8.23
2023-02-19T09:02:33.644Z,8.20
2023-02-19T09:05:00.317Z,8.20
2023-02-19T09:07:27.388Z,8.20
2023-02-19T09:09:54.142Z,8.17
2023-02-19T09:12:21.396Z,8.17
2023-02-19T09:14:47.988Z,8.19
2023-02-19T09:17:14.644Z,8.34
2023-02-19T09:19:41.221Z,8.37
2023-02-19T09:22:07.834Z,8.31
2023-02-19T09:24:34.414Z,8.51
2023-02-19T09:27:01.115Z,8.51
2023-02-19T09:29:28.771Z,8.50
2023-02-19T09:31:59.865Z,8.31
2023-02-19T09:34:27.881Z,8.20
2023-02-19T09:36:57.462Z,8.21
2023-02-19T09:39:24.044Z,8.34
2023-02-19T09:41:58.375Z,8.46
2023-02-19T09:44:32.856Z,8.51
2023-02-19T09:47:01.809Z,8.73
2023-02-19T09:49:40.567Z,8.64
2023-02-19T09:52:27.102Z,8.59
2023-02-19T09:54:57.709Z,8.82
2023-02-19T09:57:28.023Z,8.88
2023-02-19T10:00:07.969Z,8.87
2023-02-19T10:02:35.714Z,8.94
2023-02-19T10:05:03.799Z,9.13
2023-02-19T10:07:40.559Z,9.19
2023-02-19T10:10:13.396Z,9.16
2023-02-19T10:12:45.828Z,9.23
2023-02-19T10:15:19.012Z,9.72
2023-02-19T10:17:45.611Z,11.32
2023-02-19T10:20:17.614Z,13.56
2023-02-19T10:22:44.869Z,15.57
2023-02-19T10:25:16.674Z,15.99
2023-02-19T10:27:44.125Z,17.88
2023-02-19T10:30:21.431Z,17.36
2023-02-19T10:33:12.478Z,18.60
2023-02-19T10:35:56.242Z,18.76
2023-02-19T10:38:45.581Z,18.42
2023-02-19T10:41:12.353Z,18.03
2023-02-19T10:43:43.594Z,19.76
2023-02-19T10:46:17.840Z,19.47
2023-02-19T10:48:55.607Z,18.08
2023-02-19T10:51:32.067Z,16.56
2023-02-19T10:54:21.354Z,16.23
2023-02-19T10:56:47.998Z,15.38
2023-02-19T10:59:28.821Z,14.98
2023-02-19T11:02:01.516Z,14.84
2023-02-19T11:04:34.031Z,15.97
2023-02-19T11:07:14.944Z,15.88
2023-02-19T11:09:47.779Z,17.18
2023-02-19T11:12:23.398Z,17.96
2023-02-19T11:14:50.051Z,17.88
2023-02-19T11:17:30.608Z,19.08
2023-02-19T11:20:01.955Z,19.93
2023-02-19T11:22:40.358Z,19.08
2023-02-19T11:25:12.862Z,18.19
2023-02-19T11:27:57.199Z,19.46
2023-02-19T11:30:41.809Z,19.79
2023-02-19T11:33:17.719Z,19.77
2023-02-19T11:35:44.579Z,19.33
2023-02-19T11:38:14.173Z,20.17
2023-02-19T11:41:14.725Z,18.92
2023-02-19T11:43:58.733Z,19.14
2023-02-19T11:47:26.193Z,18.53
2023-02-19T11:50:28.538Z,17.49
2023-02-19T11:53:21.704Z,17.10
2023-02-19T11:56:34.102Z,17.73
2023-02-19T11:59:07.368Z,17.11
2023-02-19T12:01:55.417Z,17.20
2023-02-19T12:04:40.878Z,17.89
2023-02-19T12:07:47.664Z,17.50
2023-02-19T12:10:20.046Z,16.75
2023-02-19T12:13:07.810Z,16.43
2023-02-19T12:16:21.900Z,15.61
2023-02-19T12:19:17.163Z,15.10
2023-02-19T12:22:04.518Z,16.12
2023-02-19T12:25:23.800Z,16.85
2023-02-19T12:28:18.565Z,17.32
2023-02-19T12:30:51.355Z,16.36
2023-02-19T12:33:41.177Z,17.22
2023-02-19T12:36:20.068Z,16.73
2023-02-19T12:39:23.299Z,16.24
2023-02-19T12:42:31.490Z,16.70
2023-02-19T12:45:04.224Z,16.65
2023-02-19T12:47:42.156Z,16.02
2023-02-19T12:50:21.698Z,15.48
2023-02-19T12:52:58.673Z,15.63
2023-02-19T12:55:30.019Z,16.02
2023-02-19T12:58:01.408Z,16.25
2023-02-19T13:00:36.493Z,15.94
2023-02-19T13:03:09.337Z,16.72
2023-02-19T13:06:08.298Z,16.22
2023-02-19T13:09:06.284Z,15.51
2023-02-19T13:11:45.118Z,15.00
2023-02-19T13:14:25.197Z,13.09
2023-02-19T13:16:57.801Z,12.27
2023-02-19T13:19:24.562Z,11.69
2023-02-19T13:22:21.324Z,11.54
2023-02-19T13:24:49.574Z,11.28
2023-02-19T13:27:34.322Z,11.08
2023-02-19T13:30:10.586Z,11.02
2023-02-19T13:32:48.346Z,10.94
2023-02-19T13:35:24.063Z,11.31
2023-02-19T13:37:51.790Z,11.60
2023-02-19T13:40:42.994Z,11.83
2023-02-19T13:43:28.102Z,12.11
2023-02-19T13:46:00.683Z,12.34
2023-02-19T13:48:31.680Z,13.22
2023-02-19T13:51:16.867Z,13.80
2023-02-19T13:53:44.657Z,14.07
2023-02-19T13:56:29.988Z,13.90
2023-02-19T13:59:13.143Z,12.99
2023-02-19T14:01:54.968Z,12.54
2023-02-19T14:04:46.647Z,12.10
2023-02-19T14:07:13.126Z,11.95
2023-02-19T14:09:45.726Z,11.88
2023-02-19T14:12:16.270Z,11.75
2023-02-19T14:14:44.095Z,10.72
2023-02-19T14:17:12.337Z,10.07
2023-02-19T14:19:41.687Z,9.85
2023-02-19T14:23:05.705Z,9.57
2023-02-19T14:25:45.600Z,9.31
2023-02-19T14:28:21.011Z,9.24
2023-02-19T14:31:00.678Z,9.24
2023-02-19T14:33:36.267Z,9.15
2023-02-19T14:36:09.399Z,9.05
2023-02-19T14:38:42.353Z,9.06
2023-02-19T14:41:13.211Z,9.13
2023-02-19T14:43:40.600Z,9.12
2023-02-19T14:46:16.171Z,9.21
2023-02-19T14:48:46.535Z,9.29
2023-02-19T14:51:40.590Z,9.43
2023-02-19T14:54:17.640Z,9.58
2023-02-19T14:56:48.619Z,9.58
2023-02-19T14:59:26.483Z,9.58
2023-02-19T15:02:21.152Z,9.39
2023-02-19T15:04:48.258Z,9.44
2023-02-19T15:07:20.038Z,9.53
2023-02-19T15:09:53.320Z,9.40
2023-02-19T15:12:23.323Z,9.16
2023-02-19T15:14:53.124Z,9.06
2023-02-19T15:17:27.873Z,8.94
2023-02-19T15:19:56.926Z,8.89
2023-02-19T15:22:28.293Z,8.89
2023-02-19T15:24:55.656Z,8.89
2023-02-19T15:27:24.610Z,9.12
2023-02-19T15:29:53.812Z,9.24
2023-02-19T15:32:28.709Z,9.28
2023-02-19T15:35:00.420Z,9.25
2023-02-19T15:37:32.642Z,9.10
2023-02-19T15:40:02.146Z,9.05
2023-02-19T15:42:31.130Z,8.92
2023-02-19T15:45:04.205Z,8.93
2023-02-19T15:47:43.000Z,8.85
2023-02-19T15:50:14.894Z,8.77
2023-02-19T15:52:55.212Z,8.74
2023-02-19T15:55:21.723Z,8.77
2023-02-19T15:57:58.231Z,8.61
2023-02-19T16:00:35.275Z,8.67
2023-02-19T16:03:02.208Z,8.80
2023-02-19T16:05:29.583Z,8.82
2023-02-19T16:08:32.747Z,8.83
2023-02-19T16:11:02.105Z,8.64
2023-02-19T16:13:31.605Z,8.79
2023-02-19T16:16:16.107Z,8.66
2023-02-19T16:18:47.636Z,8.43
2023-02-19T16:21:16.873Z,8.49
2023-02-19T16:23:45.358Z,8.75
2023-02-19T16:26:12.501Z,9.00
2023-02-19T16:28:41.878Z,9.09
2023-02-19T16:31:12.234Z,8.98
2023-02-19T16:33:41.856Z,9.11
2023-02-19T16:36:33.354Z,9.24
2023-02-19T16:39:13.008Z,9.31
2023-02-19T16:41:39.529Z,9.26
2023-02-19T16:44:35.762Z,9.43
2023-02-19T16:47:14.051Z,9.38
2023-02-19T16:49:42.542Z,9.24
2023-02-19T16:52:14.399Z,9.42
2023-02-19T16:54:42.552Z,9.37
2023-02-19T16:57:09.300Z,9.34
2023-02-19T16:59:35.930Z,9.16
2023-02-19T17:02:05.638Z,8.93
2023-02-19T17:04:32.250Z,8.79
2023-02-19T17:06:58.845Z,8.65
2023-02-19T17:09:25.413Z,8.69
2023-02-19T17:11:51.997Z,8.67
2023-02-19T17:14:19.139Z,8.67
2023-02-19T17:16:45.841Z,8.58
2023-02-19T17:19:14.573Z,8.40
2023-02-19T17:21:41.572Z,8.41
2023-02-19T17:24:08.274Z,8.39
2023-02-19T17:26:34.885Z,8.34
2023-02-19T17:29:05.014Z,8.30
2023-02-19T17:31:32.576Z,8.28
2023-02-19T17:33:59.629Z,8.25
2023-02-19T17:36:31.586Z,8.25
2023-02-19T17:39:00.187Z,8.21
2023-02-19T17:41:27.001Z,8.15
2023-02-19T17:43:53.646Z,8.18
2023-02-19T17:46:25.910Z,8.04
2023-02-19T17:48:53.914Z,7.99
2023-02-19T17:51:21.195Z,8.04
2023-02-19T17:53:47.957Z,8.15
2023-02-19T17:56:20.293Z,7.97
2023-02-19T17:58:47.213Z,7.85
2023-02-19T18:01:14.790Z,7.96
2023-02-19T18:03:41.817Z,7.90
2023-02-19T18:06:08.710Z,7.88
2023-02-19T18:08:36.132Z,7.93
2023-02-19T18:11:09.998Z,7.92
2023-02-19T18:13:43.139Z,7.87
2023-02-19T18:16:30.378Z,7.73
2023-02-19T18:19:03.101Z,7.60
2023-02-19T18:21:29.923Z,7.67
2023-02-19T18:24:00.720Z,7.73
2023-02-19T18:26:34.115Z,7.78
2023-02-19T18:29:02.335Z,7.84
2023-02-19T18:31:33.225Z,7.83
2023-02-19T18:34:00.035Z,7.72
2023-02-19T18:36:32.691Z,7.55
2023-02-19T18:39:01.934Z,7.56
2023-02-19T18:41:29.062Z,7.54
2023-02-19T18:43:56.100Z,7.57
2023-02-19T18:46:23.394Z,7.49
2023-02-19T18:48:50.424Z,7.47
2023-02-19T18:51:17.420Z,7.19
2023-02-19T18:53:44.331Z,7.33
2023-02-19T18:56:11.491Z,7.35
2023-02-19T18:58:44.089Z,7.50
2023-02-19T19:01:19.552Z,7.44
2023-02-19T19:03:55.652Z,7.41
2023-02-19T19:06:28.659Z,7.48
2023-02-19T19:09:10.782Z,7.76
2023-02-19T19:11:41.524Z,7.91
2023-02-19T19:14:16.982Z,7.84
2023-02-19T19:16:46.732Z,7.78
2023-02-19T19:19:16.627Z,7.79
2023-02-19T19:21:43.520Z,7.71
2023-02-19T19:24:12.613Z,7.78
2023-02-19T19:26:47.149Z,7.70
2023-02-19T19:29:23.336Z,7.65
2023-02-19T19:31:51.894Z,7.64
2023-02-19T19:34:40.520Z,7.62
2023-02-19T19:37:22.728Z,7.50
2023-02-19T19:39:56.013Z,7.50
2023-02-19T19:42:29.284Z,7.66
2023-02-19T19:45:15.994Z,7.68
2023-02-19T19:48:38.684Z,7.63
2023-02-19T19:55:08.966Z,7.48
2023-02-19T19:58:05.705Z,7.43
2023-02-19T20:01:16.125Z,7.45
2023-02-19T20:03:46.164Z,7.57
2023-02-19T20:07:22.970Z,7.54
2023-02-19T20:10:14.716Z,7.49
2023-02-19T20:16:44.927Z,7.56
2023-02-19T20:19:43.529Z,7.50
2023-02-19T20:22:20.879Z,7.46
2023-02-19T20:25:39.095Z,7.50
2023-02-19T20:28:07.605Z,7.48
2023-02-19T20:30:49.800Z,7.45
2023-02-19T20:39:59.143Z,7.36
2023-02-19T20:44:40.712Z,7.27
2023-02-19T20:46:15.205Z,7.24
2023-02-19T20:48:52.096Z,7.23
2023-02-19T20:51:32.139Z,7.16
2023-02-19T20:54:06.373Z,7.10
2023-02-19T20:56:49.255Z,6.99
2023-02-19T20:59:23.873Z,6.94
2023-02-19T21:02:02.374Z,6.88
2023-02-19T21:04:34.565Z,6.80
2023-02-19T21:07:25.011Z,6.65
2023-02-19T21:10:16.068Z,6.68
2023-02-19T21:12:48.673Z,6.61
2023-02-19T21:18:21.817Z,6.40
2023-02-19T21:20:59.366Z,6.44
2023-02-19T21:23:45.918Z,6.25
2023-02-19T21:26:45.997Z,6.13
2023-02-19T21:29:26.375Z,6.11
2023-02-19T21:32:56.055Z,6.04
2023-02-19T21:35:28.826Z,6.03
2023-02-19T21:38:20.441Z,5.93
2023-02-19T21:41:03.222Z,5.79
2023-02-19T21:46:29.979Z,5.65
2023-02-19T21:49:00.432Z,5.59
2023-02-19T21:52:03.425Z,5.55
2023-02-19T21:55:10.118Z,5.29
2023-02-19T21:57:51.742Z,5.14
2023-02-19T22:00:48.645Z,5.04
2023-02-19T22:03:27.010Z,4.91
2023-02-19T22:06:21.306Z,4.97
2023-02-19T22:08:52.326Z,4.94
2023-02-19T22:11:19.677Z,4.92
2023-02-19T22:13:50.282Z,4.86
2023-02-19T22:19:02.206Z,4.92
2023-02-19T22:21:52.791Z,4.62
2023-02-19T22:24:22.420Z,4.65
2023-02-19T22:27:19.516Z,4.68
2023-02-19T22:30:02.210Z,4.61
2023-02-19T22:32:37.116Z,4.64
2023-02-19T22:38:22.683Z,4.50
2023-02-19T22:41:16.239Z,4.56
2023-02-19T22:44:02.274Z,4.33
2023-02-19T22:46:48.749Z,4.23
2023-02-19T22:49:20.677Z,4.30
2023-02-19T22:52:17.225Z,4.29
2023-02-19T22:54:45.051Z,4.16
2023-02-19T22:57:18.003Z,4.24
2023-02-19T22:59:51.751Z,4.01
2023-02-19T23:02:24.471Z,4.06
2023-02-19T23:04:51.742Z,4.17
2023-02-19T23:07:19.210Z,3.99
2023-02-19T23:09:46.450Z,3.98
2023-02-19T23:12:16.495Z,4.02
2023-02-19T23:14:43.728Z,4.05
2023-02-19T23:17:11.026Z,4.05
2023-02-19T23:19:38.395Z,4.04
2023-02-19T23:22:06.459Z,4.08
2023-02-19T23:24:33.210Z,3.94
2023-02-19T23:27:00.643Z,4.16
2023-02-19T23:29:28.052Z,4.09
2023-02-19T23:31:55.162Z,3.94
2023-02-19T23:34:22.873Z,3.89
2023-02-19T23:36:50.564Z,3.96
2023-02-19T23:39:20.639Z,3.91
2023-02-19T23:41:49.304Z,3.90
2023-02-19T23:44:16.600Z,3.76
2023-02-19T23:46:44.018Z,3.89
2023-02-19T23:49:10.622Z,3.93
2023-02-19T23:51:37.568Z,3.94
2023-02-19T23:54:04.568Z,3.92
2023-02-19T23:56:31.808Z,3.78
2023-02-19T23:58:58.611Z,3.74
